Wetterdaten: Woche 23.11.15 - 29.11.15 (KW48)
Datum Zeit Temp. I. Temp. A. Feuchte I. Feuchte A. Luftdruck Regen Wind Richtung Sonnenschein UV Solar Taupunkt Windchill Windben
23.11.2015 00:00 23,1 C -0,9 C 48 % 93 % 1012,2 hPa 0,0 l/m 5,6 km/h (1 Bft) W-SW 0,00 h 0,0 UV-I 0 W/m -1,9 C -1,4 C 10,2 km/h (2 Bft)
23.11.2015 01:00 22,9 C -0,9 C 49 % 92 % 1012,7 hPa 0,0 l/m 4,7 km/h (1 Bft) W-SW 0,00 h 0,0 UV-I 0 W/m -2,0 C -1,3 C 9,4 km/h (2 Bft)
23.11.2015 02:00 22,8 C -0,9 C 49 % 91 % 1013,3 hPa 0,0 l/m 5,1 km/h (1 Bft) W-SW 0,00 h 0,0 UV-I 0 W/m -2,3 C -1,7 C 9,3 km/h (2 Bft)
23.11.2015 03:00 22,8 C -1,1 C 49 % 93 % 1013,3 hPa 0,2 l/m 5,4 km/h (1 Bft) SW 0,00 h 0,0 UV-I 0 W/m -2,1 C -1,5 C 9,7 km/h (2 Bft)
23.11.2015 04:00 22,7 C -1,0 C 49 % 94 % 1013,6 hPa 0,2 l/m 7,1 km/h (2 Bft) SW 0,00 h 0,0 UV-I 0 W/m -1,9 C -2,4 C 12,7 km/h (3 Bft)
23.11.2015 05:00 22,6 C -0,8 C 49 % 94 % 1014,1 hPa 0,4 l/m 5,4 km/h (1 Bft) W-SW 0,00 h 0,0 UV-I 0 W/m -1,6 C -1,5 C 9,9 km/h (2 Bft)
23.11.2015 06:00 22,6 C -0,8 C 49 % 94 % 1015,2 hPa 0,2 l/m 1,8 km/h (1 Bft) W 0,00 h 0,0 UV-I 0 W/m -1,6 C -0,8 C 4,1 km/h (1 Bft)
23.11.2015 07:00 22,6 C -1,0 C 48 % 94 % 1016,4 hPa 0,2 l/m 4,6 km/h (1 Bft) W-NW 0,00 h 0,0 UV-I 0 W/m -1,8 C -1,6 C 7,9 km/h (2 Bft)
23.11.2015 08:00 22,9 C -1,3 C 48 % 94 % 1017,8 hPa 0,4 l/m 2,3 km/h (1 Bft) W-NW 0,00 h 0,0 UV-I 9 W/m -2,1 C -1,4 C 4,5 km/h (1 Bft)
23.11.2015 09:00 22,9 C -0,9 C 46 % 90 % 1019,1 hPa 0,0 l/m 1,1 km/h (0 Bft) W 0,02 h 0,0 UV-I 33 W/m -2,3 C -0,9 C 2,2 km/h (1 Bft)
23.11.2015 10:00 23,0 C -0,1 C 48 % 85 % 1020,4 hPa 0,0 l/m 1,0 km/h (0 Bft) W 0,63 h 0,6 UV-I 216 W/m -2,3 C -0,1 C 2,0 km/h (1 Bft)
23.11.2015 11:00 22,9 C -0,0 C 47 % 79 % 1020,9 hPa 0,0 l/m 3,5 km/h (1 Bft) W-NW 0,90 h 0,7 UV-I 163 W/m -3,3 C -0,3 C 6,5 km/h (2 Bft)
23.11.2015 12:00 22,4 C -0,0 C 46 % 81 % 1021,4 hPa 0,0 l/m 2,9 km/h (1 Bft) W 0,00 h 0,6 UV-I 99 W/m -2,8 C -0,3 C 5,7 km/h (1 Bft)
23.11.2015 13:00 22,8 C 0,2 C 45 % 81 % 1022,0 hPa 0,0 l/m 6,4 km/h (2 Bft) W-NW 0,00 h 0,5 UV-I 92 W/m -2,7 C -1,1 C 11,0 km/h (2 Bft)
23.11.2015 14:00 22,7 C 0,4 C 43 % 81 % 1022,4 hPa 0,0 l/m 4,6 km/h (1 Bft) W-SW 0,00 h 0,5 UV-I 79 W/m -2,4 C 0,0 C 9,0 km/h (2 Bft)
23.11.2015 15:00 22,4 C 0,4 C 40 % 86 % 1023,2 hPa 0,0 l/m 3,7 km/h (1 Bft) SW 0,00 h 0,0 UV-I 29 W/m -1,8 C 0,2 C 7,5 km/h (2 Bft)
23.11.2015 16:00 22,3 C 0,2 C 42 % 89 % 1023,9 hPa 0,0 l/m 2,1 km/h (1 Bft) W-SW 0,00 h 0,0 UV-I 5 W/m -1,4 C 0,2 C 4,9 km/h (1 Bft)
23.11.2015 17:00 22,9 C 0,1 C 45 % 90 % 1024,4 hPa 0,0 l/m 2,1 km/h (1 Bft) W 0,00 h 0,0 UV-I 0 W/m -1,3 C 0,1 C 5,2 km/h (1 Bft)
23.11.2015 18:00 23,3 C 0,1 C 45 % 91 % 1025,2 hPa 0,0 l/m 0,9 km/h (0 Bft) W 0,00 h 0,0 UV-I 0 W/m -1,2 C 0,1 C 2,6 km/h (1 Bft)
23.11.2015 19:00 23,5 C -0,1 C 45 % 92 % 1025,5 hPa 0,0 l/m 0,3 km/h (0 Bft) SW 0,00 h 0,0 UV-I 0 W/m -1,3 C -0,1 C 0,9 km/h (0 Bft)
23.11.2015 20:00 23,5 C -0,1 C 46 % 92 % 1025,9 hPa 0,0 l/m 0,0 km/h (0 Bft) N 0,00 h 0,0 UV-I 0 W/m -1,3 C -0,1 C 0,0 km/h (0 Bft)
23.11.2015 21:00 23,3 C -0,3 C 46 % 92 % 1026,1 hPa 0,0 l/m 0,0 km/h (0 Bft) N 0,00 h 0,0 UV-I 0 W/m -1,4 C -0,3 C 0,0 km/h (0 Bft)
23.11.2015 22:00 23,1 C -0,3 C 44 % 93 % 1026,1 hPa 0,0 l/m 0,2 km/h (0 Bft) S-SO 0,00 h 0,0 UV-I 0 W/m -1,3 C -0,3 C 0,7 km/h (0 Bft)
23.11.2015 23:00 22,8 C -0,3 C 45 % 94 % 1026,4 hPa 0,0 l/m 0,2 km/h (0 Bft) S 0,00 h 0,0 UV-I 0 W/m -1,1 C -0,3 C 0,2 km/h (0 Bft)
24.11.2015 00:00 22,6 C -0,2 C 45 % 94 % 1026,3 hPa 0,0 l/m 0,4 km/h (0 Bft) S-SW 0,00 h 0,0 UV-I 0 W/m -1,1 C -0,2 C 0,9 km/h (0 Bft)
24.11.2015 01:00 22,4 C -0,2 C 45 % 95 % 1026,2 hPa 0,0 l/m 0,1 km/h (0 Bft) W-SW 0,00 h 0,0 UV-I 0 W/m -0,9 C -0,2 C 0,7 km/h (0 Bft)
24.11.2015 02:00 22,3 C -0,1 C 46 % 95 % 1026,1 hPa 0,0 l/m 0,0 km/h (0 Bft) N 0,00 h 0,0 UV-I 0 W/m -0,8 C -0,1 C 0,0 km/h (0 Bft)
24.11.2015 03:00 22,3 C -0,1 C 46 % 95 % 1025,8 hPa 0,0 l/m 0,0 km/h (0 Bft) N 0,00 h 0,0 UV-I 0 W/m -0,8 C -0,1 C 0,0 km/h (0 Bft)
24.11.2015 04:00 22,3 C -0,3 C 46 % 95 % 1025,7 hPa 0,0 l/m 0,0 km/h (0 Bft) N 0,00 h 0,0 UV-I 0 W/m -1,0 C -0,3 C 0,1 km/h (0 Bft)
24.11.2015 05:00 22,6 C -0,4 C 46 % 95 % 1025,6 hPa 0,0 l/m 0,0 km/h (0 Bft) N 0,00 h 0,0 UV-I 0 W/m -1,1 C -0,4 C 0,0 km/h (0 Bft)
24.11.2015 06:00 22,8 C -0,4 C 46 % 95 % 1025,5 hPa 0,0 l/m 0,0 km/h (0 Bft) SW 0,00 h 0,0 UV-I 0 W/m -1,1 C -0,4 C 0,3 km/h (0 Bft)
24.11.2015 07:00 22,8 C -0,4 C 46 % 95 % 1025,4 hPa 0,0 l/m 0,2 km/h (0 Bft) S 0,00 h 0,0 UV-I 7 W/m -1,1 C -0,4 C 0,5 km/h (0 Bft)
24.11.2015 08:00 22,6 C -0,4 C 44 % 95 % 1025,5 hPa 0,0 l/m 1,2 km/h (1 Bft) S-SO 0,00 h 0,0 UV-I 41 W/m -1,1 C -0,4 C 3,0 km/h (1 Bft)
24.11.2015 09:00 23,1 C 0,0 C 45 % 95 % 1025,3 hPa 0,0 l/m 0,8 km/h (0 Bft) S 0,05 h 0,5 UV-I 72 W/m -0,7 C 0,0 C 2,4 km/h (1 Bft)
24.11.2015 10:00 23,3 C 0,7 C 47 % 91 % 1025,0 hPa 0,0 l/m 2,1 km/h (1 Bft) S 0,43 h 0,8 UV-I 165 W/m -0,5 C 0,7 C 5,7 km/h (1 Bft)
24.11.2015 11:00 23,3 C 0,8 C 47 % 90 % 1024,4 hPa 0,0 l/m 1,8 km/h (1 Bft) S 0,53 h 0,9 UV-I 162 W/m -0,7 C 0,8 C 4,7 km/h (1 Bft)
24.11.2015 12:00 23,4 C 1,1 C 45 % 88 % 1023,5 hPa 0,0 l/m 3,6 km/h (1 Bft) S 0,47 h 1,0 UV-I 164 W/m -0,7 C 0,7 C 7,5 km/h (2 Bft)
24.11.2015 13:00 23,5 C 1,5 C 43 % 83 % 1022,4 hPa 0,0 l/m 6,6 km/h (2 Bft) S 0,77 h 0,9 UV-I 233 W/m -1,0 C -0,1 C 10,7 km/h (2 Bft)
24.11.2015 14:00 23,5 C 1,3 C 44 % 83 % 1021,9 hPa 0,0 l/m 8,3 km/h (2 Bft) S-SO 0,20 h 0,6 UV-I 113 W/m -1,2 C -0,6 C 13,0 km/h (3 Bft)
24.11.2015 15:00 23,3 C 0,5 C 43 % 86 % 1021,0 hPa 0,0 l/m 7,9 km/h (2 Bft) S-SO 0,00 h 0,0 UV-I 25 W/m -1,5 C -1,1 C 11,9 km/h (2 Bft)
24.11.2015 16:00 23,4 C -0,1 C 42 % 89 % 1020,3 hPa 0,0 l/m 6,8 km/h (2 Bft) S-SO 0,00 h 0,0 UV-I 6 W/m -1,8 C -1,0 C 10,5 km/h (2 Bft)
24.11.2015 17:00 23,4 C -0,5 C 42 % 89 % 1019,7 hPa 0,0 l/m 5,6 km/h (1 Bft) S-SO 0,00 h 0,0 UV-I 0 W/m -2,1 C -1,0 C 8,5 km/h (2 Bft)
24.11.2015 18:00 23,7 C -0,9 C 43 % 90 % 1019,3 hPa 0,0 l/m 4,8 km/h (1 Bft) S-SO 0,00 h 0,0 UV-I 0 W/m -2,3 C -1,1 C 7,7 km/h (2 Bft)
24.11.2015 19:00 23,7 C -1,0 C 43 % 90 % 1018,7 hPa 0,0 l/m 3,7 km/h (1 Bft) S-SO 0,00 h 0,0 UV-I 0 W/m -2,3 C -1,1 C 6,4 km/h (2 Bft)
24.11.2015 20:00 23,9 C -1,0 C 42 % 91 % 1017,9 hPa 0,0 l/m 7,4 km/h (2 Bft) S 0,00 h 0,0 UV-I 0 W/m -2,3 C -2,5 C 11,4 km/h (2 Bft)
24.11.2015 21:00 23,9 C -0,9 C 44 % 90 % 1017,2 hPa 0,0 l/m 5,1 km/h (1 Bft) S 0,00 h 0,0 UV-I 0 W/m -2,3 C -1,4 C 9,0 km/h (2 Bft)
24.11.2015 22:00 23,6 C -0,7 C 42 % 88 % 1016,2 hPa 0,0 l/m 7,9 km/h (2 Bft) S 0,00 h 0,0 UV-I 0 W/m -2,4 C -2,5 C 12,3 km/h (3 Bft)
24.11.2015 23:00 23,1 C -0,8 C 42 % 89 % 1015,4 hPa 0,0 l/m 7,4 km/h (2 Bft) S 0,00 h 0,0 UV-I 0 W/m -2,4 C -2,4 C 11,6 km/h (2 Bft)
25.11.2015 00:00 23,0 C -1,0 C 44 % 90 % 1014,3 hPa 0,0 l/m 6,5 km/h (2 Bft) S 0,00 h 0,0 UV-I 0 W/m -2,5 C -1,8 C 10,2 km/h (2 Bft)
25.11.2015 01:00 22,9 C -1,1 C 45 % 91 % 1013,2 hPa 0,0 l/m 6,4 km/h (2 Bft) S 0,00 h 0,0 UV-I 0 W/m -2,4 C -2,0 C 10,5 km/h (2 Bft)
25.11.2015 02:00 22,8 C -1,1 C 46 % 91 % 1012,3 hPa 0,0 l/m 6,7 km/h (2 Bft) S 0,00 h 0,0 UV-I 0 W/m -2,4 C -1,9 C 10,6 km/h (2 Bft)
25.11.2015 03:00 22,8 C -1,0 C 47 % 92 % 1011,2 hPa 0,0 l/m 5,4 km/h (1 Bft) S 0,00 h 0,0 UV-I 0 W/m -2,2 C -1,5 C 9,0 km/h (2 Bft)
25.11.2015 04:00 22,7 C -1,0 C 47 % 91 % 1010,7 hPa 0,0 l/m 4,7 km/h (1 Bft) S 0,00 h 0,0 UV-I 0 W/m -2,2 C -1,3 C 7,5 km/h (2 Bft)
25.11.2015 05:00 22,9 C -0,9 C 48 % 92 % 1010,3 hPa 0,0 l/m 4,0 km/h (1 Bft) S 0,00 h 0,0 UV-I 0 W/m -1,9 C -1,0 C 7,6 km/h (2 Bft)
25.11.2015 06:00 22,9 C -0,8 C 49 % 93 % 1009,8 hPa 0,0 l/m 6,3 km/h (2 Bft) S 0,00 h 0,0 UV-I 0 W/m -1,8 C -1,7 C 10,8 km/h (2 Bft)
25.11.2015 07:00 22,9 C -0,6 C 49 % 93 % 1009,8 hPa 0,0 l/m 7,7 km/h (2 Bft) S 0,00 h 0,0 UV-I 5 W/m -1,6 C -2,5 C 12,4 km/h (3 Bft)
25.11.2015 08:00 23,0 C -0,3 C 49 % 93 % 1009,7 hPa 0,0 l/m 9,0 km/h (2 Bft) S 0,00 h 0,0 UV-I 18 W/m -1,3 C -2,9 C 13,8 km/h (3 Bft)
25.11.2015 09:00 23,4 C -0,1 C 47 % 93 % 1009,5 hPa 0,0 l/m 8,5 km/h (2 Bft) S 0,00 h 0,5 UV-I 51 W/m -1,1 C -2,1 C 13,0 km/h (3 Bft)
25.11.2015 10:00 23,0 C 0,5 C 44 % 93 % 1009,1 hPa 0,0 l/m 9,3 km/h (2 Bft) S 0,00 h 0,6 UV-I 107 W/m -0,5 C -2,2 C 15,7 km/h (3 Bft)
25.11.2015 11:00 22,8 C 0,7 C 41 % 93 % 1008,8 hPa 0,0 l/m 10,5 km/h (2 Bft) S 0,00 h 0,5 UV-I 68 W/m -0,3 C -2,9 C 15,7 km/h (3 Bft)
25.11.2015 12:00 22,6 C 0,9 C 40 % 94 % 1008,3 hPa 0,0 l/m 5,9 km/h (2 Bft) S 0,00 h 0,5 UV-I 50 W/m -0,0 C 0,2 C 9,9 km/h (2 Bft)
25.11.2015 13:00 22,7 C 1,2 C 39 % 93 % 1007,8 hPa 0,0 l/m 5,6 km/h (1 Bft) S 0,00 h 0,0 UV-I 52 W/m 0,2 C 0,6 C 9,4 km/h (2 Bft)
25.11.2015 14:00 22,7 C 1,3 C 39 % 93 % 1007,5 hPa 0,0 l/m 4,2 km/h (1 Bft) S 0,00 h 0,0 UV-I 27 W/m 0,3 C 0,9 C 6,6 km/h (2 Bft)
25.11.2015 15:00 22,4 C 1,3 C 37 % 94 % 1007,2 hPa 0,0 l/m 3,3 km/h (1 Bft) S 0,00 h 0,0 UV-I 19 W/m 0,4 C 1,3 C 6,7 km/h (2 Bft)
25.11.2015 16:00 22,7 C 1,2 C 39 % 95 % 1007,1 hPa 0,0 l/m 2,7 km/h (1 Bft) S 0,00 h 0,0 UV-I 0 W/m 0,5 C 1,2 C 5,5 km/h (1 Bft)
25.11.2015 17:00 23,1 C 1,2 C 40 % 95 % 1007,2 hPa 0,0 l/m 1,3 km/h (1 Bft) S 0,00 h 0,0 UV-I 0 W/m 0,5 C 1,2 C 3,7 km/h (1 Bft)
25.11.2015 18:00 23,4 C 1,2 C 41 % 96 % 1007,3 hPa 0,0 l/m 0,6 km/h (0 Bft) S 0,00 h 0,0 UV-I 0 W/m 0,6 C 1,2 C 2,4 km/h (1 Bft)
25.11.2015 19:00 23,5 C 1,1 C 45 % 96 % 1007,4 hPa 0,0 l/m 0,9 km/h (0 Bft) S 0,00 h 0,0 UV-I 0 W/m 0,6 C 1,1 C 2,9 km/h (1 Bft)
25.11.2015 20:00 23,8 C 1,2 C 45 % 96 % 1007,6 hPa 0,0 l/m 0,2 km/h (0 Bft) S-SW 0,00 h 0,0 UV-I 0 W/m 0,6 C 1,2 C 0,8 km/h (0 Bft)
25.11.2015 21:00 23,7 C 1,1 C 44 % 96 % 1007,8 hPa 0,0 l/m 0,1 km/h (0 Bft) W-SW 0,00 h 0,0 UV-I 0 W/m 0,5 C 1,1 C 0,4 km/h (0 Bft)
25.11.2015 22:00 23,6 C 1,1 C 44 % 96 % 1007,8 hPa 0,0 l/m 0,8 km/h (0 Bft) W-SW 0,00 h 0,0 UV-I 0 W/m 0,6 C 1,1 C 3,0 km/h (1 Bft)
25.11.2015 23:00 23,2 C 1,1 C 44 % 96 % 1008,1 hPa 0,0 l/m 1,0 km/h (0 Bft) W-NW 0,00 h 0,0 UV-I 0 W/m 0,5 C 1,1 C 3,7 km/h (1 Bft)
26.11.2015 00:00 23,0 C 1,1 C 44 % 95 % 1008,1 hPa 0,0 l/m 0,0 km/h (0 Bft) W 0,00 h 0,0 UV-I 0 W/m 0,3 C 1,1 C 0,1 km/h (0 Bft)
26.11.2015 01:00 22,8 C 0,9 C 44 % 94 % 1008,3 hPa 0,0 l/m 0,0 km/h (0 Bft) N 0,00 h 0,0 UV-I 0 W/m 0,1 C 0,9 C 0,0 km/h (0 Bft)
26.11.2015 02:00 22,7 C 0,9 C 44 % 95 % 1008,7 hPa 0,0 l/m 0,0 km/h (0 Bft) N 0,00 h 0,0 UV-I 0 W/m 0,2 C 0,9 C 0,0 km/h (0 Bft)
26.11.2015 03:00 22,5 C 0,8 C 45 % 95 % 1009,0 hPa 0,0 l/m 0,0 km/h (0 Bft) N 0,00 h 0,0 UV-I 0 W/m 0,1 C 0,8 C 0,0 km/h (0 Bft)
26.11.2015 04:00 22,2 C 0,9 C 47 % 95 % 1009,3 hPa 0,0 l/m 0,0 km/h (0 Bft) N 0,00 h 0,0 UV-I 0 W/m 0,2 C 0,9 C 0,0 km/h (0 Bft)
26.11.2015 05:00 22,2 C 0,9 C 48 % 95 % 1009,9 hPa 0,0 l/m 0,0 km/h (0 Bft) N 0,00 h 0,0 UV-I 0 W/m 0,2 C 0,9 C 0,0 km/h (0 Bft)
26.11.2015 06:00 22,3 C 1,0 C 48 % 95 % 1010,6 hPa 0,0 l/m 0,0 km/h (0 Bft) N 0,00 h 0,0 UV-I 0 W/m 0,3 C 1,0 C 0,0 km/h (0 Bft)
26.11.2015 07:00 22,2 C 1,1 C 49 % 95 % 1011,2 hPa 0,0 l/m 0,0 km/h (0 Bft) N 0,00 h 0,0 UV-I 0 W/m 0,4 C 1,1 C 0,0 km/h (0 Bft)
26.11.2015 08:00 22,6 C 1,2 C 48 % 96 % 1012,0 hPa 0,0 l/m 0,0 km/h (0 Bft) N 0,00 h 0,0 UV-I 7 W/m 0,6 C 1,2 C 0,0 km/h (0 Bft)
26.11.2015 09:00 23,2 C 1,5 C 45 % 96 % 1012,7 hPa 0,0 l/m 0,0 km/h (0 Bft) W 0,00 h 0,0 UV-I 56 W/m 0,9 C 1,5 C 0,2 km/h (0 Bft)
26.11.2015 10:00 23,2 C 2,3 C 44 % 96 % 1013,7 hPa 0,0 l/m 0,3 km/h (0 Bft) N 0,00 h 0,0 UV-I 58 W/m 1,7 C 2,3 C 1,6 km/h (1 Bft)
26.11.2015 11:00 23,1 C 2,6 C 43 % 94 % 1014,3 hPa 0,0 l/m 0,3 km/h (0 Bft) N-NW 0,00 h 0,0 UV-I 59 W/m 1,7 C 2,6 C 1,0 km/h (0 Bft)
26.11.2015 12:00 23,1 C 2,9 C 42 % 93 % 1014,9 hPa 0,0 l/m 0,6 km/h (0 Bft) NW 0,00 h 0,0 UV-I 51 W/m 1,8 C 2,9 C 2,2 km/h (1 Bft)
26.11.2015 13:00 23,0 C 3,2 C 40 % 93 % 1015,3 hPa 0,0 l/m 0,7 km/h (0 Bft) N-NW 0,00 h 0,5 UV-I 72 W/m 2,1 C 3,2 C 2,4 km/h (1 Bft)
26.11.2015 14:00 23,1 C 3,5 C 41 % 92 % 1015,9 hPa 0,0 l/m 1,0 km/h (0 Bft) N-NW 0,00 h 0,0 UV-I 74 W/m 2,3 C 3,5 C 2,4 km/h (1 Bft)
26.11.2015 15:00 23,1 C 2,9 C 41 % 92 % 1016,8 hPa 0,2 l/m 0,7 km/h (0 Bft) N-NW 0,00 h 0,0 UV-I 74 W/m 1,7 C 2,9 C 2,4 km/h (1 Bft)
26.11.2015 16:00 22,9 C 2,2 C 39 % 92 % 1017,6 hPa 0,0 l/m 0,0 km/h (0 Bft) N 0,00 h 0,0 UV-I 74 W/m 1,1 C 2,2 C 0,0 km/h (0 Bft)
26.11.2015 17:00 23,2 C 1,8 C 39 % 94 % 1018,6 hPa 0,0 l/m 0,0 km/h (0 Bft) N 0,00 h 0,0 UV-I 0 W/m 0,9 C 1,8 C 0,0 km/h (0 Bft)
26.11.2015 18:00 23,6 C 1,7 C 41 % 95 % 1019,5 hPa 0,0 l/m 0,0 km/h (0 Bft) N 0,00 h 0,0 UV-I 0 W/m 1,0 C 1,7 C 0,0 km/h (0 Bft)
26.11.2015 19:00 23,8 C 1,6 C 40 % 95 % 1020,1 hPa 0,0 l/m 0,0 km/h (0 Bft) N 0,00 h 0,0 UV-I 0 W/m 0,9 C 1,6 C 0,0 km/h (0 Bft)
26.11.2015 20:00 23,7 C 1,2 C 40 % 95 % 1020,8 hPa 0,2 l/m 0,0 km/h (0 Bft) N 0,00 h 0,0 UV-I 0 W/m 0,5 C 1,2 C 0,0 km/h (0 Bft)
26.11.2015 21:00 23,6 C 0,9 C 41 % 95 % 1021,1 hPa 0,0 l/m 0,0 km/h (0 Bft) N 0,00 h 0,0 UV-I 0 W/m 0,2 C 0,9 C 0,0 km/h (0 Bft)
26.11.2015 22:00 23,3 C 0,7 C 40 % 95 % 1021,4 hPa 0,0 l/m 0,0 km/h (0 Bft) N 0,00 h 0,0 UV-I 0 W/m 0,0 C 0,7 C 0,0 km/h (0 Bft)
26.11.2015 23:00 23,0 C 0,5 C 41 % 96 % 1021,6 hPa 0,0 l/m 0,0 km/h (0 Bft) N 0,00 h 0,0 UV-I 0 W/m -0,1 C 0,5 C 0,0 km/h (0 Bft)
27.11.2015 00:00 22,8 C 0,3 C 41 % 96 % 1021,8 hPa 0,0 l/m 0,0 km/h (0 Bft) N 0,00 h 0,0 UV-I 0 W/m -0,2 C 0,3 C 0,0 km/h (0 Bft)
27.11.2015 01:00 22,7 C -0,1 C 42 % 96 % 1021,9 hPa 0,0 l/m 0,0 km/h (0 Bft) N 0,00 h 0,0 UV-I 0 W/m -0,6 C -0,1 C 0,0 km/h (0 Bft)
27.11.2015 02:00 22,6 C -0,6 C 42 % 96 % 1022,0 hPa 0,0 l/m 0,0 km/h (0 Bft) N 0,00 h 0,0 UV-I 0 W/m -1,1 C -0,6 C 0,0 km/h (0 Bft)
27.11.2015 03:00 22,5 C -0,9 C 42 % 96 % 1021,7 hPa 0,0 l/m 0,0 km/h (0 Bft) N 0,00 h 0,0 UV-I 0 W/m -1,5 C -0,9 C 0,0 km/h (0 Bft)
27.11.2015 04:00 22,8 C -1,2 C 42 % 96 % 1021,6 hPa 0,0 l/m 0,0 km/h (0 Bft) N 0,00 h 0,0 UV-I 0 W/m -1,8 C -1,2 C 0,0 km/h (0 Bft)
27.11.2015 05:00 23,0 C -1,9 C 42 % 96 % 1021,6 hPa 0,0 l/m 0,0 km/h (0 Bft) N 0,00 h 0,0 UV-I 0 W/m -2,4 C -1,9 C 0,0 km/h (0 Bft)
27.11.2015 06:00 23,0 C -2,0 C 42 % 96 % 1021,5 hPa 0,0 l/m 0,0 km/h (0 Bft) N 0,00 h 0,0 UV-I 0 W/m -2,6 C -2,0 C 0,0 km/h (0 Bft)
27.11.2015 07:00 23,0 C -1,9 C 42 % 97 % 1021,5 hPa 0,0 l/m 0,0 km/h (0 Bft) N 0,00 h 0,0 UV-I 6 W/m -2,3 C -1,9 C 0,0 km/h (0 Bft)
27.11.2015 08:00 23,1 C -1,6 C 42 % 97 % 1021,5 hPa 0,0 l/m 0,0 km/h (0 Bft) N 0,00 h 0,0 UV-I 20 W/m -2,0 C -1,6 C 0,0 km/h (0 Bft)
27.11.2015 09:00 23,1 C -0,9 C 40 % 97 % 1021,5 hPa 0,0 l/m 0,0 km/h (0 Bft) N 0,00 h 0,5 UV-I 58 W/m -1,3 C -0,9 C 0,0 km/h (0 Bft)
27.11.2015 10:00 23,2 C 0,0 C 40 % 97 % 1021,2 hPa 0,0 l/m 0,0 km/h (0 Bft) N 0,28 h 0,6 UV-I 129 W/m -0,4 C 0,0 C 0,2 km/h (0 Bft)
27.11.2015 11:00 22,9 C 1,8 C 37 % 95 % 1020,7 hPa 0,0 l/m 0,6 km/h (0 Bft) NW 0,93 h 0,9 UV-I 264 W/m 1,1 C 1,8 C 1,4 km/h (1 Bft)
27.11.2015 12:00 23,3 C 2,7 C 39 % 89 % 1019,9 hPa 0,0 l/m 0,6 km/h (0 Bft) W-NW 1,00 h 1,0 UV-I 302 W/m 1,1 C 2,7 C 1,2 km/h (1 Bft)
27.11.2015 13:00 23,3 C 3,2 C 38 % 87 % 1019,2 hPa 0,0 l/m 0,7 km/h (0 Bft) W-SW 0,63 h 0,9 UV-I 225 W/m 1,2 C 3,2 C 1,6 km/h (1 Bft)
27.11.2015 14:00 23,2 C 2,3 C 36 % 85 % 1018,6 hPa 0,0 l/m 0,0 km/h (0 Bft) N 0,00 h 0,0 UV-I 51 W/m 0,1 C 2,3 C 0,0 km/h (0 Bft)
27.11.2015 15:00 23,4 C 2,3 C 36 % 83 % 1018,2 hPa 0,0 l/m 0,0 km/h (0 Bft) N 0,00 h 0,0 UV-I 23 W/m -0,3 C 2,3 C 0,0 km/h (0 Bft)
27.11.2015 16:00 23,4 C 1,7 C 38 % 80 % 1017,9 hPa 0,0 l/m 0,2 km/h (0 Bft) SO 0,00 h 0,0 UV-I 6 W/m -1,3 C 1,7 C 0,6 km/h (0 Bft)
27.11.2015 17:00 23,3 C 1,1 C 36 % 81 % 1017,6 hPa 0,0 l/m 0,1 km/h (0 Bft) O-SO 0,00 h 0,0 UV-I 0 W/m -1,8 C 1,1 C 0,3 km/h (0 Bft)
27.11.2015 18:00 23,8 C 0,7 C 37 % 82 % 1017,2 hPa 0,0 l/m 0,0 km/h (0 Bft) N 0,00 h 0,0 UV-I 0 W/m -2,0 C 0,7 C 0,0 km/h (0 Bft)
27.11.2015 19:00 23,8 C -0,2 C 38 % 85 % 1016,7 hPa 0,0 l/m 0,0 km/h (0 Bft) N 0,00 h 0,0 UV-I 0 W/m -2,3 C -0,2 C 0,0 km/h (0 Bft)
27.11.2015 20:00 23,6 C -1,1 C 37 % 89 % 1016,3 hPa 0,0 l/m 0,0 km/h (0 Bft) N 0,00 h 0,0 UV-I 0 W/m -2,7 C -1,1 C 0,0 km/h (0 Bft)
27.11.2015 21:00 23,6 C -1,9 C 38 % 91 % 1016,0 hPa 0,0 l/m 0,0 km/h (0 Bft) N 0,00 h 0,0 UV-I 0 W/m -3,2 C -1,9 C 0,0 km/h (0 Bft)
27.11.2015 22:00 23,4 C -2,6 C 37 % 92 % 1015,3 hPa 0,0 l/m 0,0 km/h (0 Bft) N 0,00 h 0,0 UV-I 0 W/m -3,8 C -2,6 C 0,0 km/h (0 Bft)
27.11.2015 23:00 23,2 C -3,1 C 39 % 92 % 1014,9 hPa 0,0 l/m 0,0 km/h (0 Bft) N 0,00 h 0,0 UV-I 0 W/m -4,2 C -3,1 C 0,0 km/h (0 Bft)
28.11.2015 00:00 22,9 C -2,8 C 40 % 94 % 1014,9 hPa 0,0 l/m 3,4 km/h (1 Bft) S 0,00 h 0,0 UV-I 0 W/m -3,5 C -2,9 C 7,4 km/h (2 Bft)
28.11.2015 01:00 22,8 C -2,4 C 41 % 96 % 1014,7 hPa 0,0 l/m 3,4 km/h (1 Bft) S 0,00 h 0,0 UV-I 0 W/m -2,9 C -2,4 C 7,2 km/h (2 Bft)
28.11.2015 02:00 22,7 C -2,2 C 41 % 96 % 1014,2 hPa 0,0 l/m 3,1 km/h (1 Bft) S 0,00 h 0,0 UV-I 0 W/m -2,7 C -2,2 C 6,7 km/h (2 Bft)
28.11.2015 03:00 22,6 C -2,0 C 42 % 96 % 1013,5 hPa 0,0 l/m 2,3 km/h (1 Bft) S 0,00 h 0,0 UV-I 0 W/m -2,6 C -2,1 C 5,7 km/h (1 Bft)
28.11.2015 04:00 22,7 C -1,7 C 42 % 96 % 1013,0 hPa 0,0 l/m 2,3 km/h (1 Bft) SW 0,00 h 0,0 UV-I 0 W/m -2,3 C -1,7 C 5,8 km/h (2 Bft)
28.11.2015 05:00 22,8 C -1,4 C 43 % 95 % 1012,4 hPa 0,0 l/m 2,7 km/h (1 Bft) S 0,00 h 0,0 UV-I 0 W/m -2,1 C -1,4 C 6,1 km/h (2 Bft)
28.11.2015 06:00 22,8 C -1,2 C 43 % 95 % 1012,1 hPa 0,0 l/m 3,2 km/h (1 Bft) S 0,00 h 0,0 UV-I 0 W/m -2,0 C -1,3 C 7,6 km/h (2 Bft)
28.11.2015 07:00 22,8 C -1,0 C 43 % 93 % 1012,0 hPa 0,0 l/m 2,4 km/h (1 Bft) SW 0,00 h 0,0 UV-I 5 W/m -2,0 C -1,0 C 6,2 km/h (2 Bft)
28.11.2015 08:00 22,8 C -1,0 C 43 % 91 % 1012,0 hPa 0,0 l/m 3,9 km/h (1 Bft) S-SW 0,00 h 0,0 UV-I 34 W/m -2,2 C -1,3 C 9,0 km/h (2 Bft)
28.11.2015 09:00 22,9 C -0,7 C 42 % 91 % 1011,9 hPa 0,0 l/m 7,9 km/h (2 Bft) S 0,00 h 0,5 UV-I 57 W/m -1,9 C -2,9 C 13,3 km/h (3 Bft)
28.11.2015 10:00 23,0 C -0,6 C 40 % 92 % 1012,1 hPa 0,0 l/m 6,1 km/h (2 Bft) S-SW 0,00 h 0,0 UV-I 33 W/m -1,7 C -1,4 C 9,7 km/h (2 Bft)
28.11.2015 11:00 23,1 C -0,5 C 39 % 94 % 1012,3 hPa 0,2 l/m 4,9 km/h (1 Bft) SW 0,00 h 0,0 UV-I 30 W/m -1,3 C -1,1 C 9,4 km/h (2 Bft)
28.11.2015 12:00 23,3 C -0,3 C 41 % 95 % 1012,5 hPa 0,6 l/m 4,1 km/h (1 Bft) SW 0,00 h 0,0 UV-I 24 W/m -1,0 C -0,6 C 7,8 km/h (2 Bft)
28.11.2015 13:00 23,3 C 0,2 C 40 % 95 % 1013,0 hPa 0,0 l/m 7,7 km/h (2 Bft) W-SW 0,00 h 0,0 UV-I 24 W/m -0,5 C -1,6 C 13,4 km/h (3 Bft)
28.11.2015 14:00 23,3 C 0,7 C 40 % 94 % 1014,1 hPa 0,0 l/m 9,3 km/h (2 Bft) W-SW 0,00 h 0,0 UV-I 31 W/m -0,2 C -2,1 C 15,1 km/h (3 Bft)
28.11.2015 15:00 23,2 C 0,9 C 40 % 94 % 1015,6 hPa 0,0 l/m 6,2 km/h (2 Bft) W 0,00 h 0,0 UV-I 14 W/m 0,1 C 0,0 C 10,5 km/h (2 Bft)
28.11.2015 16:00 23,5 C 1,1 C 40 % 94 % 1016,8 hPa 0,0 l/m 4,5 km/h (1 Bft) W 0,00 h 0,0 UV-I 6 W/m 0,2 C 0,8 C 8,6 km/h (2 Bft)
28.11.2015 17:00 23,5 C 1,2 C 39 % 95 % 1017,7 hPa 0,0 l/m 6,5 km/h (2 Bft) W 0,00 h 0,0 UV-I 0 W/m 0,4 C 0,1 C 11,5 km/h (2 Bft)
28.11.2015 18:00 23,5 C 1,2 C 40 % 95 % 1018,6 hPa 0,0 l/m 6,5 km/h (2 Bft) W 0,00 h 0,0 UV-I 0 W/m 0,5 C 0,1 C 12,1 km/h (2 Bft)
28.11.2015 19:00 23,7 C 1,3 C 42 % 94 % 1019,0 hPa 0,2 l/m 6,8 km/h (2 Bft) W-SW 0,00 h 0,0 UV-I 0 W/m 0,4 C 0,1 C 11,3 km/h (2 Bft)
28.11.2015 20:00 23,8 C 1,4 C 42 % 92 % 1019,6 hPa 0,0 l/m 4,5 km/h (1 Bft) W-SW 0,00 h 0,0 UV-I 0 W/m 0,3 C 0,9 C 9,1 km/h (2 Bft)
28.11.2015 21:00 23,7 C 1,3 C 41 % 93 % 1019,9 hPa 0,0 l/m 6,9 km/h (2 Bft) SW 0,00 h 0,0 UV-I 0 W/m 0,3 C -0,1 C 11,5 km/h (2 Bft)
28.11.2015 22:00 23,5 C 1,3 C 40 % 93 % 1019,9 hPa 0,0 l/m 7,2 km/h (2 Bft) SW 0,00 h 0,0 UV-I 0 W/m 0,3 C -0,4 C 12,8 km/h (3 Bft)
28.11.2015 23:00 23,0 C 1,3 C 40 % 92 % 1019,8 hPa 0,0 l/m 9,6 km/h (2 Bft) W-SW 0,00 h 0,0 UV-I 0 W/m 0,1 C -1,6 C 15,9 km/h (3 Bft)
29.11.2015 00:00 22,8 C 1,3 C 40 % 91 % 1019,4 hPa 0,0 l/m 8,5 km/h (2 Bft) SW 0,00 h 0,0 UV-I 0 W/m 0,1 C -0,8 C 14,2 km/h (3 Bft)
29.11.2015 01:00 22,7 C 1,3 C 41 % 91 % 1019,2 hPa 0,0 l/m 7,1 km/h (2 Bft) SW 0,00 h 0,0 UV-I 0 W/m 0,0 C -0,0 C 12,0 km/h (2 Bft)
29.11.2015 02:00 22,6 C 0,9 C 41 % 92 % 1018,6 hPa 0,0 l/m 8,0 km/h (2 Bft) SW 0,00 h 0,0 UV-I 0 W/m -0,2 C -0,8 C 12,9 km/h (3 Bft)
29.11.2015 03:00 22,5 C 0,6 C 41 % 92 % 1018,0 hPa 0,0 l/m 7,8 km/h (2 Bft) SW 0,00 h 0,0 UV-I 0 W/m -0,5 C -1,2 C 13,1 km/h (3 Bft)
29.11.2015 04:00 22,8 C 0,8 C 41 % 91 % 1017,5 hPa 0,0 l/m 7,9 km/h (2 Bft) S 0,00 h 0,0 UV-I 0 W/m -0,5 C -1,0 C 12,3 km/h (3 Bft)
29.11.2015 05:00 22,9 C 1,0 C 41 % 90 % 1016,7 hPa 0,0 l/m 10,3 km/h (2 Bft) S 0,00 h 0,0 UV-I 0 W/m -0,5 C -2,5 C 16,2 km/h (3 Bft)
29.11.2015 06:00 23,0 C 0,9 C 41 % 91 % 1016,6 hPa 0,2 l/m 11,7 km/h (2 Bft) S 0,00 h 0,0 UV-I 0 W/m -0,3 C -3,6 C 18,6 km/h (3 Bft)
29.11.2015 07:00 23,1 C 0,6 C 42 % 95 % 1016,6 hPa 1,2 l/m 9,0 km/h (2 Bft) S-SW 0,00 h 0,0 UV-I 0 W/m -0,1 C -1,9 C 14,8 km/h (3 Bft)
29.11.2015 08:00 23,3 C 0,7 C 44 % 96 % 1016,7 hPa 0,6 l/m 8,9 km/h (2 Bft) S 0,00 h 0,0 UV-I 8 W/m 0,2 C -1,7 C 14,5 km/h (3 Bft)
29.11.2015 09:00 23,1 C 0,9 C 41 % 96 % 1016,8 hPa 0,4 l/m 8,8 km/h (2 Bft) S-SW 0,00 h 0,0 UV-I 18 W/m 0,3 C -1,4 C 13,5 km/h (3 Bft)
29.11.2015 10:00 23,4 C 1,1 C 40 % 96 % 1016,9 hPa 0,2 l/m 7,3 km/h (2 Bft) S-SW 0,00 h 0,0 UV-I 47 W/m 0,5 C -0,4 C 12,3 km/h (3 Bft)
29.11.2015 11:00 23,0 C 1,3 C 39 % 96 % 1016,6 hPa 0,4 l/m 7,9 km/h (2 Bft) S 0,00 h 0,5 UV-I 57 W/m 0,8 C -0,4 C 12,9 km/h (3 Bft)
29.11.2015 12:00 23,3 C 1,6 C 40 % 96 % 1016,1 hPa 0,6 l/m 7,5 km/h (2 Bft) S-SW 0,00 h 0,5 UV-I 64 W/m 1,0 C 0,4 C 13,3 km/h (3 Bft)
29.11.2015 13:00 23,4 C 1,9 C 39 % 96 % 1015,7 hPa 1,0 l/m 7,6 km/h (2 Bft) SW 0,00 h 0,0 UV-I 44 W/m 1,4 C 0,5 C 12,5 km/h (3 Bft)
29.11.2015 14:00 23,5 C 2,3 C 40 % 96 % 1015,8 hPa 1,0 l/m 6,9 km/h (2 Bft) SW 0,00 h 0,0 UV-I 29 W/m 1,7 C 1,2 C 11,9 km/h (2 Bft)
29.11.2015 15:00 23,3 C 2,5 C 41 % 96 % 1015,9 hPa 0,6 l/m 7,0 km/h (2 Bft) S-SW 0,00 h 0,0 UV-I 7 W/m 1,9 C 1,4 C 11,4 km/h (2 Bft)
29.11.2015 16:00 23,4 C 3,2 C 42 % 97 % 1015,8 hPa 0,2 l/m 8,6 km/h (2 Bft) S 0,00 h 0,0 UV-I 0 W/m 2,7 C 1,2 C 13,5 km/h (3 Bft)
29.11.2015 17:00 23,7 C 4,0 C 43 % 97 % 1015,5 hPa 1,0 l/m 8,6 km/h (2 Bft) S 0,00 h 0,0 UV-I 0 W/m 3,5 C 1,7 C 13,8 km/h (3 Bft)
29.11.2015 18:00 23,8 C 4,5 C 43 % 97 % 1014,9 hPa 0,8 l/m 10,9 km/h (2 Bft) S-SW 0,00 h 0,0 UV-I 0 W/m 4,1 C 1,0 C 17,8 km/h (3 Bft)
29.11.2015 19:00 23,8 C 5,3 C 43 % 97 % 1014,9 hPa 1,0 l/m 14,0 km/h (3 Bft) SW 0,00 h 0,0 UV-I 0 W/m 4,9 C 0,1 C 23,9 km/h (4 Bft)
29.11.2015 20:00 23,7 C 5,9 C 43 % 96 % 1014,8 hPa 1,0 l/m 13,6 km/h (3 Bft) SW 0,00 h 0,0 UV-I 0 W/m 5,3 C 1,0 C 22,0 km/h (4 Bft)
29.11.2015 21:00 23,6 C 6,3 C 44 % 95 % 1014,5 hPa 0,6 l/m 13,9 km/h (3 Bft) SW 0,00 h 0,0 UV-I 0 W/m 5,6 C 1,4 C 23,2 km/h (4 Bft)
29.11.2015 22:00 23,6 C 6,7 C 43 % 94 % 1014,3 hPa 0,2 l/m 14,0 km/h (3 Bft) W-SW 0,00 h 0,0 UV-I 0 W/m 5,7 C 1,9 C 22,8 km/h (4 Bft)
29.11.2015 23:00 23,2 C 6,7 C 43 % 94 % 1014,1 hPa 1,0 l/m 13,6 km/h (3 Bft) SW 0,00 h 0,0 UV-I 0 W/m 5,8 C 2,1 C 22,8 km/h (4 Bft)
Min-Datum _ 23.11.15 27.11.15 27.11.15 23.11.15 25.11.15 - 23.11.15 - - - - 27.11.15 25.11.15 23.11.15
_ Min-Zeit 15:57 23:49 14:49 11:23 16:15 - 01:34 - - - - 23:49 10:35 05:50
Minimum _ 21,9 C -3,3 C 32 % 76 % 1007,0 hPa - 0,0 km/h (0 Bft) - - - - -4,4 C -7,9 C 0,0 km/h (0 Bft)
Max-Datum _ 24.11.15 29.11.15 23.11.15 27.11.15 23.11.15 29.11.15 29.11.15 - 27.11.15 24.11.15 23.11.15 29.11.15 29.11.15 29.11.15
_ Max-Zeit 20:58 22:48 07:42 11:01 23:38 07:02 22:41 - 12:51 12:14 10:07 22:44 22:23 22:34
Maximum _ 24,1 C 6,9 C 50 % 98 % 1026,5 hPa 1,2 l/m 27,4 km/h
W-SW (4 Bft)
- 0,07 h 1,3 UV-I 473 W/m 5,9 C 6,6 C 40,2 km/h
SW (6 Bft)
Durchschnitt _ 23,1 C 0,5 C 43 % 93 % 1016,7 hPa #15,0 l/m 3,7 km/h (1 Bft) S #6:51 h 0,7 UV-I 65 W/m -0,5 C -0,2 C 6,5 km/h (2 Bft)